createdAt,value
2022-10-02T00:01:24.429Z,101296.81
2022-10-02T00:03:53.200Z,101294.75
2022-10-02T00:06:24.327Z,101288.16
2022-10-02T00:08:58.362Z,101301.72
2022-10-02T00:11:33.121Z,101299.66
2022-10-02T00:14:03.091Z,101301.31
2022-10-02T00:16:37.199Z,101300.50
2022-10-02T00:19:05.341Z,101301.38
2022-10-02T00:21:50.377Z,101306.19
2022-10-02T00:24:23.535Z,101312.09
2022-10-02T00:26:56.471Z,101317.41
2022-10-02T00:29:32.126Z,101335.50
2022-10-02T00:32:16.288Z,101359.41
2022-10-02T00:34:58.533Z,101368.16
2022-10-02T00:37:38.760Z,101361.50
2022-10-02T00:40:33.852Z,101341.53
2022-10-02T00:43:11.965Z,101347.56
2022-10-02T00:46:05.421Z,101358.13
2022-10-02T00:48:58.068Z,101351.16
2022-10-02T00:51:42.949Z,101354.81
2022-10-02T00:54:26.875Z,101359.06
2022-10-02T00:57:07.242Z,101357.47
2022-10-02T00:59:55.186Z,101359.63
2022-10-02T01:02:49.966Z,101356.47
2022-10-02T01:05:20.745Z,101349.56
2022-10-02T01:07:51.932Z,101350.66
2022-10-02T01:10:22.282Z,101354.38
2022-10-02T01:12:50.963Z,101345.13
2022-10-02T01:15:21.104Z,101348.34
2022-10-02T01:17:52.601Z,101352.66
2022-10-02T01:20:25.805Z,101351.66
2022-10-02T01:23:01.089Z,101350.38
2022-10-02T01:25:30.470Z,101344.06
2022-10-02T01:27:58.344Z,101341.16
2022-10-02T01:30:26.934Z,101346.53
2022-10-02T01:32:57.413Z,101346.34
2022-10-02T01:35:28.760Z,101337.88
2022-10-02T01:37:56.876Z,101345.63
2022-10-02T01:40:27.324Z,101345.63
2022-10-02T01:42:59.494Z,101350.94
2022-10-02T01:45:39.255Z,101350.94
2022-10-02T01:48:14.516Z,101360.75
2022-10-02T01:50:52.837Z,101354.38
2022-10-02T01:53:29.819Z,101353.88
2022-10-02T01:56:08.943Z,101351.22
2022-10-02T01:58:50.852Z,101361.03
2022-10-02T02:01:29.435Z,101363.41
2022-10-02T02:04:05.080Z,101362.91
2022-10-02T02:06:39.048Z,101356.03
2022-10-02T02:09:12.843Z,101354.44
2022-10-02T02:11:45.013Z,101359.75
2022-10-02T02:14:18.237Z,101358.69
2022-10-02T02:16:50.369Z,101363.19
2022-10-02T02:19:23.060Z,101362.91
2022-10-02T02:21:55.133Z,101360.25
2022-10-02T02:24:27.091Z,101359.97
2022-10-02T02:26:57.133Z,101358.09
2022-10-02T02:29:29.054Z,101366.06
2022-10-02T02:31:59.393Z,101360.75
2022-10-02T02:34:31.342Z,101358.09
2022-10-02T02:37:03.593Z,101356.53
2022-10-02T02:39:38.510Z,101354.94
2022-10-02T02:42:09.549Z,101356.03
2022-10-02T02:44:42.956Z,101359.47
2022-10-02T02:47:14.233Z,101358.69
2022-10-02T02:49:52.365Z,101358.38
2022-10-02T02:52:26.868Z,101366.88
2022-10-02T02:54:59.713Z,101364.72
2022-10-02T02:57:33.657Z,101366.00
2022-10-02T03:00:04.946Z,101370.25
2022-10-02T03:02:32.981Z,101365.16
2022-10-02T03:05:00.650Z,101366.75
2022-10-02T03:07:28.460Z,101369.09
2022-10-02T03:10:03.126Z,101368.03
2022-10-02T03:12:43.260Z,101372.56
2022-10-02T03:15:26.527Z,101363.78
2022-10-02T03:18:20.157Z,101358.47
2022-10-02T03:20:56.766Z,101358.75
2022-10-02T03:23:35.537Z,101362.78
2022-10-02T03:26:09.035Z,101361.19
2022-10-02T03:28:56.650Z,101367.88
2022-10-02T03:31:29.384Z,101371.59
2022-10-02T03:33:59.670Z,101372.97
2022-10-02T03:36:27.752Z,101374.31
2022-10-02T03:39:23.241Z,101378.34
2022-10-02T03:41:46.617Z,101382.34
2022-10-02T03:44:14.286Z,101382.66
2022-10-02T03:46:43.367Z,101382.66
2022-10-02T03:49:11.041Z,101384.81
2022-10-02T03:51:38.665Z,101391.19
2022-10-02T03:54:14.024Z,101386.16
2022-10-02T03:56:47.596Z,101394.41
2022-10-02T03:59:23.060Z,101398.94
2022-10-02T04:01:55.150Z,101395.47
2022-10-02T04:04:27.580Z,101392.53
2022-10-02T04:07:01.408Z,101389.63
2022-10-02T04:09:32.576Z,101394.63
2022-10-02T04:12:07.201Z,101395.69
2022-10-02T04:14:39.226Z,101405.53
2022-10-02T04:17:13.551Z,101410.84
2022-10-02T04:19:47.287Z,101399.44
2022-10-02T04:22:22.098Z,101394.41
2022-10-02T04:24:51.129Z,101407.66
2022-10-02T04:27:23.066Z,101406.66
2022-10-02T04:29:56.061Z,101408.03
2022-10-02T04:32:27.480Z,101414.69
2022-10-02T04:34:55.262Z,101417.63
2022-10-02T04:37:42.173Z,101418.69
2022-10-02T04:40:24.206Z,101418.97
2022-10-02T04:43:08.339Z,101421.63
2022-10-02T04:45:54.028Z,101420.03
2022-10-02T04:48:57.121Z,101424.84
2022-10-02T04:51:39.734Z,101427.00
2022-10-02T04:54:28.157Z,101422.47
2022-10-02T04:57:08.433Z,101418.53
2022-10-02T05:00:06.141Z,101427.84
2022-10-02T05:02:43.554Z,101427.34
2022-10-02T05:05:32.803Z,101422.31
2022-10-02T05:08:14.789Z,101425.25
2022-10-02T05:11:14.997Z,101430.84
2022-10-02T05:14:10.149Z,101426.88
2022-10-02T05:16:55.345Z,101421.88
2022-10-02T05:19:37.928Z,101428.75
2022-10-02T05:22:19.849Z,101454.22
2022-10-02T05:25:06.637Z,101461.09
2022-10-02T05:27:50.573Z,101473.03
2022-10-02T05:30:19.895Z,101470.31
2022-10-02T05:33:02.625Z,101471.06
2022-10-02T05:35:51.357Z,101472.59
2022-10-02T05:38:35.069Z,101483.72
2022-10-02T05:41:07.926Z,101481.56
2022-10-02T05:43:43.367Z,101474.91
2022-10-02T05:46:16.710Z,101484.19
2022-10-02T05:48:47.837Z,101484.97
2022-10-02T05:51:21.966Z,101478.06
2022-10-02T05:53:57.153Z,101470.41
2022-10-02T05:56:30.259Z,101475.69
2022-10-02T05:59:02.206Z,101479.16
2022-10-02T06:01:34.558Z,101470.41
2022-10-02T06:04:08.930Z,101465.88
2022-10-02T06:06:42.518Z,101468.84
2022-10-02T06:09:19.997Z,101462.13
2022-10-02T06:11:52.576Z,101471.19
2022-10-02T06:14:26.831Z,101478.06
2022-10-02T06:17:01.946Z,101487.34
2022-10-02T06:19:36.089Z,101485.47
2022-10-02T06:22:08.784Z,101482.56
2022-10-02T06:24:44.877Z,101492.09
2022-10-02T06:27:18.750Z,101489.44
2022-10-02T06:29:51.870Z,101496.34
2022-10-02T06:32:26.857Z,101499.78
2022-10-02T06:34:54.836Z,101496.06
2022-10-02T06:37:42.174Z,101509.03
2022-10-02T06:40:44.341Z,101504.28
2022-10-02T06:43:27.154Z,101511.66
2022-10-02T06:46:08.264Z,101517.22
2022-10-02T06:48:46.172Z,101532.56
2022-10-02T06:51:22.988Z,101534.66
2022-10-02T06:54:09.031Z,101535.97
2022-10-02T06:56:57.997Z,101538.56
2022-10-02T06:59:37.834Z,101532.41
2022-10-02T07:02:24.096Z,101535.81
2022-10-02T07:05:04.166Z,101546.91
2022-10-02T07:07:47.954Z,101547.59
2022-10-02T07:10:30.425Z,101552.56
2022-10-02T07:13:17.782Z,101553.81
2022-10-02T07:16:07.704Z,101550.84
2022-10-02T07:18:46.169Z,101561.91
2022-10-02T07:21:22.064Z,101557.34
2022-10-02T07:24:02.083Z,101571.38
2022-10-02T07:26:50.132Z,101563.34
2022-10-02T07:29:29.650Z,101576.53
2022-10-02T07:32:32.661Z,101577.28
2022-10-02T07:35:09.252Z,101574.56
2022-10-02T07:37:47.370Z,101580.88
2022-10-02T07:40:32.037Z,101593.31
2022-10-02T07:43:30.377Z,101600.94
2022-10-02T07:46:10.022Z,101592.03
2022-10-02T07:48:56.315Z,101592.19
2022-10-02T07:51:51.015Z,101588.84
2022-10-02T07:54:34.917Z,101594.03
2022-10-02T07:57:11.385Z,101594.69
2022-10-02T07:59:43.377Z,101598.47
2022-10-02T08:02:29.733Z,101598.53
2022-10-02T08:05:01.781Z,101594.16
2022-10-02T08:07:31.432Z,101594.25
2022-10-02T08:10:04.042Z,101598.03
2022-10-02T08:12:38.541Z,101613.03
2022-10-02T08:15:08.213Z,101620.81
2022-10-02T08:17:46.085Z,101615.13
2022-10-02T08:20:27.399Z,101618.47
2022-10-02T08:23:04.321Z,101620.75
2022-10-02T08:25:41.093Z,101631.59
2022-10-02T08:28:14.228Z,101630.22
2022-10-02T08:30:42.112Z,101620.50
2022-10-02T08:33:14.984Z,101634.97
2022-10-02T08:35:51.814Z,101632.09
2022-10-02T08:38:33.678Z,101639.72
2022-10-02T08:41:43.206Z,101646.59
2022-10-02T08:44:52.835Z,101654.53
2022-10-02T08:48:00.210Z,101663.03
2022-10-02T08:51:15.378Z,101663.66
2022-10-02T08:54:19.505Z,101666.00
2022-10-02T08:57:13.145Z,101670.31
2022-10-02T09:00:09.448Z,101674.59
2022-10-02T09:03:16.720Z,101674.19
2022-10-02T09:06:30.816Z,101685.47
2022-10-02T09:09:45.458Z,101680.66
2022-10-02T09:12:58.227Z,101673.16
2022-10-02T09:15:44.409Z,101680.00
2022-10-02T09:18:19.361Z,101673.22
2022-10-02T09:21:18.638Z,101682.84
2022-10-02T09:24:23.594Z,101689.16
2022-10-02T09:27:23.735Z,101694.53
2022-10-02T09:30:17.315Z,101693.41
2022-10-02T09:33:16.955Z,101703.31
2022-10-02T09:36:07.429Z,101702.06
2022-10-02T09:39:04.750Z,101700.78
2022-10-02T09:42:06.489Z,101710.53
2022-10-02T09:45:09.462Z,101708.47
2022-10-02T09:48:14.549Z,101711.34
2022-10-02T09:51:05.402Z,101705.25
2022-10-02T09:54:04.035Z,101701.63
2022-10-02T09:57:17.076Z,101707.19
2022-10-02T10:00:12.690Z,101703.16
2022-10-02T10:03:18.786Z,101709.88
2022-10-02T10:06:35.418Z,101716.03
2022-10-02T10:09:21.669Z,101714.31
2022-10-02T10:12:41.342Z,101720.66
2022-10-02T10:15:40.522Z,101734.13
2022-10-02T10:18:44.394Z,101735.75
2022-10-02T10:21:38.248Z,101730.59
2022-10-02T10:24:35.878Z,101726.31
2022-10-02T10:27:29.323Z,101733.13
2022-10-02T10:30:21.383Z,101735.97
2022-10-02T10:33:25.108Z,101742.78
2022-10-02T10:36:46.478Z,101754.38
2022-10-02T10:39:43.239Z,101744.72
2022-10-02T10:43:03.419Z,101748.69
2022-10-02T10:45:49.766Z,101750.13
2022-10-02T10:48:35.123Z,101755.91
2022-10-02T10:51:24.705Z,101761.72
2022-10-02T10:54:22.837Z,101765.22
2022-10-02T10:56:55.586Z,101771.69
2022-10-02T11:00:12.099Z,101774.28
2022-10-02T11:03:07.749Z,101777.56
2022-10-02T11:06:12.454Z,101784.53
2022-10-02T11:09:29.105Z,101790.06
2022-10-02T11:12:24.377Z,101792.38
2022-10-02T11:15:09.817Z,101796.13
2022-10-02T11:18:17.067Z,101802.56
2022-10-02T11:21:12.961Z,101801.13
2022-10-02T11:23:51.254Z,101803.75
2022-10-02T11:26:43.837Z,101804.66
2022-10-02T11:29:41.638Z,101805.59
2022-10-02T11:32:42.103Z,101807.13
2022-10-02T11:35:33.316Z,101811.91
2022-10-02T11:38:16.617Z,101817.41
2022-10-02T11:41:11.191Z,101814.94
2022-10-02T11:43:46.630Z,101822.22
2022-10-02T11:46:36.520Z,101825.38
2022-10-02T11:49:36.257Z,101818.09
2022-10-02T11:52:24.987Z,101822.75
2022-10-02T11:55:07.917Z,101823.28
2022-10-02T11:57:50.097Z,101826.66
2022-10-02T12:00:58.709Z,101820.94
2022-10-02T12:03:36.461Z,101820.28
2022-10-02T12:06:15.242Z,101825.97
2022-10-02T12:08:54.641Z,101826.06
2022-10-02T12:11:32.539Z,101821.09
2022-10-02T12:14:24.398Z,101820.38
2022-10-02T12:17:09.695Z,101823.81
2022-10-02T12:20:03.908Z,101827.16
2022-10-02T12:23:03.337Z,101829.25
2022-10-02T12:25:59.281Z,101829.63
2022-10-02T12:28:37.143Z,101832.72
2022-10-02T12:31:12.132Z,101841.13
2022-10-02T12:33:50.808Z,101851.47
2022-10-02T12:36:40.382Z,101842.22
2022-10-02T12:39:35.338Z,101848.25
2022-10-02T12:42:36.365Z,101838.72
2022-10-02T12:45:14.761Z,101847.09
2022-10-02T12:48:07.289Z,101849.75
2022-10-02T12:51:10.596Z,101855.59
2022-10-02T12:54:08.493Z,101852.44
2022-10-02T12:56:55.207Z,101848.81
2022-10-02T12:59:28.141Z,101856.88
2022-10-02T13:02:13.855Z,101860.81
2022-10-02T13:05:08.477Z,101861.50
2022-10-02T13:08:09.604Z,101863.03
2022-10-02T13:10:43.373Z,101872.75
2022-10-02T13:13:31.658Z,101863.56
2022-10-02T13:16:05.480Z,101859.94
2022-10-02T13:18:48.189Z,101860.28
2022-10-02T13:21:25.567Z,101865.72
2022-10-02T13:24:09.022Z,101862.50
2022-10-02T13:26:49.004Z,101855.44
2022-10-02T13:29:42.808Z,101870.78
2022-10-02T13:32:32.345Z,101863.69
2022-10-02T13:35:29.056Z,101874.59
2022-10-02T13:38:14.277Z,101880.84
2022-10-02T13:40:52.620Z,101888.72
2022-10-02T13:43:34.550Z,101889.53
2022-10-02T13:46:20.108Z,101882.09
2022-10-02T13:48:58.799Z,101884.28
2022-10-02T13:51:32.811Z,101902.34
2022-10-02T13:54:20.768Z,101897.59
2022-10-02T13:56:53.324Z,101898.34
2022-10-02T13:59:48.245Z,101901.19
2022-10-02T14:02:33.431Z,101903.47
2022-10-02T14:05:06.834Z,101896.66
2022-10-02T14:07:57.382Z,101900.91
2022-10-02T14:10:37.985Z,101898.53
2022-10-02T14:13:20.032Z,101902.94
2022-10-02T14:15:59.479Z,101905.34
2022-10-02T14:18:42.896Z,101905.47
2022-10-02T14:21:21.789Z,101910.34
2022-10-02T14:24:12.218Z,101910.81
2022-10-02T14:26:55.018Z,101903.63
2022-10-02T14:29:45.703Z,101910.50
2022-10-02T14:32:36.309Z,101912.94
2022-10-02T14:35:31.934Z,101918.47
2022-10-02T14:38:27.262Z,101917.47
2022-10-02T14:40:56.026Z,101917.88
2022-10-02T14:43:45.456Z,101922.78
2022-10-02T14:46:26.785Z,101932.75
2022-10-02T14:49:28.036Z,101931.84
2022-10-02T14:52:21.182Z,101939.09
2022-10-02T14:55:07.582Z,101934.84
2022-10-02T14:57:53.359Z,101940.44
2022-10-02T15:00:24.427Z,101945.44
2022-10-02T15:03:28.134Z,101945.22
2022-10-02T15:06:25.397Z,101946.88
2022-10-02T15:09:00.109Z,101947.38
2022-10-02T15:11:52.116Z,101958.13
2022-10-02T15:14:25.941Z,101949.63
2022-10-02T15:17:18.467Z,101956.94
2022-10-02T15:19:51.047Z,101964.66
2022-10-02T15:22:22.537Z,101965.50
2022-10-02T15:24:56.415Z,101966.16
2022-10-02T15:27:25.607Z,101967.44
2022-10-02T15:30:04.369Z,101974.66
2022-10-02T15:32:56.493Z,101978.81
2022-10-02T15:35:32.434Z,101971.41
2022-10-02T15:38:21.192Z,101982.09
2022-10-02T15:41:02.663Z,101982.53
2022-10-02T15:43:48.465Z,101993.16
2022-10-02T15:46:25.348Z,101992.81
2022-10-02T15:49:01.742Z,102006.66
2022-10-02T15:51:46.028Z,102003.63
2022-10-02T15:54:29.851Z,102011.53
2022-10-02T15:57:14.984Z,102015.63
2022-10-02T16:00:03.094Z,102020.56
2022-10-02T16:02:48.340Z,102032.41
2022-10-02T16:05:29.392Z,102028.34
2022-10-02T16:08:16.873Z,102033.53
2022-10-02T16:11:01.498Z,102040.28
2022-10-02T16:13:47.419Z,102042.09
2022-10-02T16:16:34.744Z,102048.41
2022-10-02T16:19:18.747Z,102054.91
2022-10-02T16:22:15.607Z,102051.63
2022-10-02T16:25:03.683Z,102059.25
2022-10-02T16:27:49.980Z,102052.81
2022-10-02T16:30:21.161Z,102061.75
2022-10-02T16:33:15.569Z,102068.63
2022-10-02T16:36:08.849Z,102077.00
2022-10-02T16:38:48.022Z,102069.50
2022-10-02T16:41:36.858Z,102078.38
2022-10-02T16:44:18.746Z,102087.47
2022-10-02T16:46:51.963Z,102090.84
2022-10-02T16:49:30.397Z,102092.31
2022-10-02T16:52:07.639Z,102091.25
2022-10-02T16:54:44.926Z,102103.34
2022-10-02T16:57:23.278Z,102104.53
2022-10-02T17:00:00.945Z,102114.34
2022-10-02T17:02:43.482Z,102114.25
2022-10-02T17:05:24.656Z,102125.47
2022-10-02T17:07:55.245Z,102135.94
2022-10-02T17:10:32.905Z,102134.16
2022-10-02T17:13:13.531Z,102131.16
2022-10-02T17:15:49.838Z,102139.38
2022-10-02T17:18:27.950Z,102141.88
2022-10-02T17:20:59.425Z,102150.19
2022-10-02T17:23:35.052Z,102152.41
2022-10-02T17:26:06.958Z,102165.47
2022-10-02T17:28:44.401Z,102164.78
2022-10-02T17:31:25.314Z,102159.03
2022-10-02T17:33:57.935Z,102169.56
2022-10-02T17:36:34.589Z,102174.38
2022-10-02T17:39:24.289Z,102181.09
2022-10-02T17:41:56.498Z,102185.88
2022-10-02T17:44:33.362Z,102192.09
2022-10-02T17:47:22.487Z,102197.53
2022-10-02T17:50:15.711Z,102197.56
2022-10-02T17:53:03.912Z,102200.97
2022-10-02T17:56:22.559Z,102206.84
2022-10-02T17:59:04.571Z,102211.31
2022-10-02T18:01:40.728Z,102215.28
2022-10-02T18:04:18.715Z,102219.16
2022-10-02T18:06:56.492Z,102225.97
2022-10-02T18:09:33.996Z,102233.59
2022-10-02T18:12:18.465Z,102241.84
2022-10-02T18:15:10.421Z,102236.69
2022-10-02T18:17:48.677Z,102236.28
2022-10-02T18:20:25.802Z,102242.03
2022-10-02T18:23:15.386Z,102240.00
2022-10-02T18:25:54.087Z,102248.13
2022-10-02T18:28:36.827Z,102246.91
2022-10-02T18:31:33.187Z,102254.53
2022-10-02T18:34:27.571Z,102249.75
2022-10-02T18:37:10.546Z,102251.94
2022-10-02T18:39:42.629Z,102250.91
2022-10-02T18:42:39.922Z,102261.72
2022-10-02T18:45:27.194Z,102254.91
2022-10-02T18:48:03.557Z,102256.63
2022-10-02T18:50:49.183Z,102262.03
2022-10-02T18:53:39.633Z,102267.25
2022-10-02T18:56:09.918Z,102265.47
2022-10-02T18:58:51.365Z,102271.22
2022-10-02T19:01:42.322Z,102271.84
2022-10-02T19:04:40.509Z,102280.22
2022-10-02T19:07:14.629Z,102275.75
2022-10-02T19:09:42.546Z,102283.53
2022-10-02T19:12:18.272Z,102283.88
2022-10-02T19:14:46.953Z,102285.09
2022-10-02T19:17:16.811Z,102288.16
2022-10-02T19:19:44.843Z,102290.41
2022-10-02T19:22:19.670Z,102286.22
2022-10-02T19:24:50.490Z,102300.69
2022-10-02T19:27:26.451Z,102301.03
2022-10-02T19:29:57.799Z,102301.41
2022-10-02T19:32:30.073Z,102300.63
2022-10-02T19:35:03.396Z,102302.03
2022-10-02T19:37:32.674Z,102313.78
2022-10-02T19:40:04.184Z,102317.34
2022-10-02T19:42:46.488Z,102320.03
2022-10-02T19:45:25.451Z,102323.00
2022-10-02T19:47:56.006Z,102334.81
2022-10-02T19:50:27.919Z,102333.50
2022-10-02T19:52:59.616Z,102332.22
2022-10-02T19:55:30.319Z,102345.06
2022-10-02T19:58:06.319Z,102342.19
2022-10-02T20:00:38.789Z,102335.03
2022-10-02T20:03:13.589Z,102331.03
2022-10-02T20:05:43.025Z,102337.22
2022-10-02T20:08:17.377Z,102334.09
2022-10-02T20:10:52.832Z,102342.34
2022-10-02T20:13:26.523Z,102347.97
2022-10-02T20:16:22.227Z,102347.16
2022-10-02T20:18:50.572Z,102354.91
2022-10-02T20:21:25.132Z,102355.66
2022-10-02T20:23:56.244Z,102352.22
2022-10-02T20:26:29.742Z,102353.00
2022-10-02T20:29:02.484Z,102347.41
2022-10-02T20:31:39.706Z,102355.41
2022-10-02T20:34:13.829Z,102356.50
2022-10-02T20:36:55.871Z,102362.09
2022-10-02T20:39:29.022Z,102367.69
2022-10-02T20:42:02.958Z,102367.97
2022-10-02T20:44:36.501Z,102375.44
2022-10-02T20:47:37.366Z,102378.38
2022-10-02T20:50:33.782Z,102385.28
2022-10-02T20:53:44.432Z,102392.19
2022-10-02T20:56:25.554Z,102398.56
2022-10-02T20:59:27.958Z,102397.53
2022-10-02T21:02:10.588Z,102397.53
2022-10-02T21:05:11.046Z,102406.56
2022-10-02T21:08:00.541Z,102411.34
2022-10-02T21:10:55.814Z,102417.97
2022-10-02T21:13:54.831Z,102420.34
2022-10-02T21:16:53.537Z,102428.81
2022-10-02T21:20:00.526Z,102435.44
2022-10-02T21:23:10.032Z,102438.63
2022-10-02T21:25:54.562Z,102442.09
2022-10-02T21:28:49.927Z,102435.75
2022-10-02T21:31:39.547Z,102433.09
2022-10-02T21:34:22.385Z,102443.19
2022-10-02T21:36:58.739Z,102445.28
2022-10-02T21:40:00.254Z,102452.16
2022-10-02T21:42:53.926Z,102454.22
2022-10-02T21:46:04.659Z,102458.47
2022-10-02T21:48:57.303Z,102456.31
2022-10-02T21:52:09.196Z,102464.25
2022-10-02T21:55:15.906Z,102467.97
2022-10-02T21:58:40.428Z,102468.72
2022-10-02T22:02:06.770Z,102469.44
2022-10-02T22:04:47.387Z,102473.09
2022-10-02T22:07:23.792Z,102481.59
2022-10-02T22:10:00.098Z,102488.75
2022-10-02T22:12:44.594Z,102486.91
2022-10-02T22:15:18.122Z,102481.34
2022-10-02T22:17:56.794Z,102482.09
2022-10-02T22:20:51.631Z,102482.09
2022-10-02T22:23:42.488Z,102485.31
2022-10-02T22:26:32.161Z,102484.25
2022-10-02T22:29:09.992Z,102483.69
2022-10-02T22:31:54.562Z,102484.44
2022-10-02T22:34:35.399Z,102480.44
2022-10-02T22:37:18.188Z,102480.41
2022-10-02T22:39:50.020Z,102488.53
2022-10-02T22:42:23.485Z,102487.41
2022-10-02T22:44:55.358Z,102486.06
2022-10-02T22:47:30.270Z,102486.06
2022-10-02T22:50:02.554Z,102494.03
2022-10-02T22:52:38.038Z,102502.53
2022-10-02T22:55:13.669Z,102494.81
2022-10-02T22:57:54.542Z,102503.03
2022-10-02T23:00:24.117Z,102500.28
2022-10-02T23:02:57.947Z,102495.94
2022-10-02T23:05:34.197Z,102504.41
2022-10-02T23:08:13.606Z,102499.84
2022-10-02T23:10:47.618Z,102497.34
2022-10-02T23:13:22.904Z,102497.50
2022-10-02T23:15:57.971Z,102500.34
2022-10-02T23:18:40.760Z,102496.53
2022-10-02T23:21:32.461Z,102501.31
2022-10-02T23:24:07.916Z,102502.75
2022-10-02T23:26:42.896Z,102507.44
2022-10-02T23:29:25.626Z,102501.31
2022-10-02T23:31:59.546Z,102511.03
2022-10-02T23:34:36.427Z,102519.44
2022-10-02T23:37:15.103Z,102513.84
2022-10-02T23:39:51.464Z,102513.84
2022-10-02T23:42:27.626Z,102508.22
2022-10-02T23:45:07.949Z,102508.75
2022-10-02T23:47:51.013Z,102502.91
2022-10-02T23:50:25.355Z,102504.97
2022-10-02T23:53:06.917Z,102505.47
2022-10-02T23:55:42.096Z,102505.69
2022-10-02T23:58:18.809Z,102507.31
